createdAt,value
2019-05-06T00:05:43.472Z,24.4
2019-05-06T00:15:40.703Z,24.5
2019-05-06T00:22:55.151Z,24.4
2019-05-06T00:32:54.366Z,24.4
2019-05-06T00:45:04.394Z,24.6
2019-05-06T00:54:00.755Z,24.5
2019-05-06T01:03:59.972Z,24.5
2019-05-06T01:13:59.197Z,24.6
2019-05-06T01:23:58.416Z,24.5
2019-05-06T01:33:57.633Z,24.4
2019-05-06T01:43:56.908Z,24.5
2019-05-06T01:53:39.674Z,24.4
2019-05-06T02:03:19.062Z,24.3
2019-05-06T02:12:56.822Z,24.4
2019-05-06T02:22:56.042Z,24.4
2019-05-06T02:32:55.809Z,24.3
2019-05-06T02:42:55.113Z,24.3
2019-05-06T02:52:53.919Z,24.4
2019-05-06T03:02:54.027Z,24.4
2019-05-06T03:12:53.697Z,24.3
2019-05-06T03:22:54.319Z,24.2
2019-05-06T03:33:23.106Z,24.3
2019-05-06T03:45:38.799Z,24.3
2019-05-06T03:55:38.016Z,24.3
2019-05-06T04:05:37.238Z,24.3
2019-05-06T04:15:36.458Z,24.3
2019-05-06T04:25:35.676Z,24.3
2019-05-06T04:35:34.883Z,24.4
2019-05-06T04:45:34.158Z,24.4
2019-05-06T04:55:33.777Z,24.6
2019-05-06T05:05:33.202Z,24.5
2019-05-06T05:15:33.487Z,24.6
2019-05-06T05:25:32.852Z,24.8
2019-05-06T05:35:32.186Z,24.6
2019-05-06T05:45:32.681Z,24.6
2019-05-06T05:55:32.866Z,24.6
2019-05-06T06:05:29.576Z,24.6
2019-05-06T06:15:28.853Z,24.4
2019-05-06T06:25:28.016Z,24.6
2019-05-06T06:35:27.237Z,24.6
2019-05-06T06:45:26.453Z,24.6
2019-05-06T06:55:25.689Z,24.4
2019-05-06T07:05:28.274Z,24.6
2019-05-06T07:15:24.108Z,24.6
2019-05-06T07:25:23.328Z,24.6
2019-05-06T07:35:31.042Z,24.4
2019-05-06T07:45:22.062Z,24.5
2019-05-06T07:55:22.895Z,24.4
2019-05-06T08:05:22.322Z,24.6
2019-05-06T08:15:19.422Z,24.7
2019-05-06T08:25:18.642Z,24.7
2019-05-06T08:35:17.855Z,24.7
2019-05-06T08:45:17.080Z,24.6
2019-05-06T08:55:16.292Z,24.6
2019-05-06T09:05:15.510Z,24.6
2019-05-06T09:15:14.725Z,24.6
2019-05-06T09:25:13.935Z,24.5
2019-05-06T09:35:13.198Z,24.6
2019-05-06T09:45:12.616Z,24.6
2019-05-06T09:55:12.831Z,24.6
2019-05-06T10:05:11.940Z,24.6
2019-05-06T10:15:10.031Z,24.6
2019-05-06T10:25:09.293Z,24.6
2019-05-06T10:35:08.454Z,24.6
2019-05-06T10:45:07.670Z,24.6
2019-05-06T10:55:06.933Z,24.7
2019-05-06T11:05:06.115Z,24.6
2019-05-06T11:15:05.320Z,24.6
2019-05-06T11:25:04.537Z,24.6
2019-05-06T11:34:56.140Z,24.6
2019-05-06T11:44:55.355Z,24.6
2019-05-06T11:54:54.576Z,24.6
2019-05-06T12:04:53.795Z,24.6
2019-05-06T12:14:53.067Z,24.6
2019-05-06T12:24:52.572Z,24.6
2019-05-06T12:34:52.434Z,24.6
2019-05-06T12:44:52.777Z,24.6
2019-05-06T12:54:50.143Z,24.5
2019-05-06T13:04:57.296Z,24.5
2019-05-06T13:14:48.711Z,24.5
2019-05-06T13:24:48.025Z,24.5
2019-05-06T13:34:47.230Z,24.5
2019-05-06T13:44:46.449Z,24.5
2019-05-06T13:54:45.685Z,24.5
2019-05-06T14:04:44.934Z,24.5
2019-05-06T14:14:44.088Z,24.5
2019-05-06T14:24:43.371Z,24.4
2019-05-06T14:39:42.778Z,24.4
2019-05-06T14:49:25.165Z,24.4
2019-05-06T14:59:24.389Z,24.4
2019-05-06T15:09:23.653Z,24.4
2019-05-06T15:19:22.915Z,24.4
2019-05-06T15:29:23.640Z,24.4
2019-05-06T15:39:23.147Z,24.4
2019-05-06T15:49:22.266Z,24.4
2019-05-06T15:59:19.880Z,24.4
2019-05-06T16:09:19.182Z,24.4
2019-05-06T16:19:18.483Z,24.4
2019-05-06T16:29:17.788Z,24.4
2019-05-06T16:39:17.050Z,24.4
2019-05-06T16:49:16.265Z,24.4
2019-05-06T16:59:15.533Z,24.4
2019-05-06T17:09:20.253Z,24.4
2019-05-06T17:19:13.870Z,24.5
2019-05-06T17:29:14.034Z,24.5
2019-05-06T17:45:22.257Z,24.4
2019-05-06T17:55:19.982Z,24.3
2019-05-06T18:06:26.242Z,24.3
2019-05-06T18:16:25.426Z,24.3
2019-05-06T18:26:24.680Z,24.4
2019-05-06T18:36:23.879Z,24.4
2019-05-06T18:46:23.101Z,24.4
2019-05-06T18:56:22.572Z,24.5
2019-05-06T19:04:09.828Z,24.4
2019-05-06T19:19:57.175Z,24.4
2019-05-06T19:29:56.376Z,24.4
2019-05-06T19:39:55.597Z,24.3
2019-05-06T19:49:54.814Z,24.3
2019-05-06T19:59:54.033Z,24.3
2019-05-06T20:10:48.151Z,24.4
2019-05-06T20:20:47.420Z,24.6
2019-05-06T20:30:46.583Z,24.6
2019-05-06T20:40:45.802Z,24.6
2019-05-06T20:50:45.020Z,24.4
2019-05-06T21:00:44.244Z,24.4
2019-05-06T21:19:22.212Z,24.3
2019-05-06T21:28:03.051Z,24.3
2019-05-06T21:38:02.490Z,24.3
2019-05-06T21:48:02.726Z,24.3
2019-05-06T21:58:02.119Z,24.2
2019-05-06T22:08:01.479Z,24.2
2019-05-06T22:17:58.744Z,24.2
2019-05-06T22:29:36.377Z,24.1
2019-05-06T22:39:35.591Z,24.1
2019-05-06T22:50:42.999Z,24.1
2019-05-06T23:06:43.827Z,24.1
2019-05-06T23:16:29.370Z,24
2019-05-06T23:26:28.584Z,24
2019-05-06T23:36:28.789Z,24
2019-05-06T23:46:27.074Z,24
2019-05-06T23:56:26.237Z,24
